Time;durP1;ratioP1;P1;durP2;ratioP2;P2;SDS_P1;SDS_P2;PMS_P1;PMS_P2;Temp;Humidity;BMP_temperature;BMP_pressure;BME280_temperature;BME280_humidity;BME280_pressure;Samples;Min_cycle;Max_cycle;Signal;HPM_P1;HPM_P2
2022/10/27 00:01:31;;;;;;;10.02;4.88;;;;;;;12.94;100.00;101559.94;4966362;28;20043;-80
2022/10/27 00:03:57;;;;;;;11.45;4.95;;;;;;;12.89;100.00;101554.28;4967951;29;20083;-80
2022/10/27 00:06:24;;;;;;;10.40;5.00;;;;;;;12.94;100.00;101564.38;4965898;29;20467;-80
2022/10/27 00:08:51;;;;;;;8.40;4.90;;;;;;;12.84;100.00;101545.22;4966638;28;20141;-80
2022/10/27 00:11:18;;;;;;;9.55;5.07;;;;;;;12.88;100.00;101554.44;4958743;28;20078;-79
2022/10/27 00:13:46;;;;;;;8.68;4.97;;;;;;;12.66;100.00;101534.69;4948998;29;20081;-81
2022/10/27 00:16:15;;;;;;;12.02;5.68;;;;;;;12.76;100.00;101556.44;4954501;29;20094;-81
2022/10/27 00:18:42;;;;;;;10.07;5.40;;;;;;;12.73;100.00;101559.41;4964613;28;20111;-81
2022/10/27 00:21:10;;;;;;;10.77;5.32;;;;;;;12.74;100.00;101553.16;4965612;28;20051;-81
2022/10/27 00:23:37;;;;;;;13.75;6.55;;;;;;;12.68;100.00;101553.75;4954195;28;20459;-81
2022/10/27 00:26:05;;;;;;;14.25;6.20;;;;;;;12.61;100.00;101550.06;4964526;29;20086;-81
2022/10/27 00:28:32;;;;;;;11.80;6.05;;;;;;;12.65;100.00;101561.09;4969261;28;20134;-82
2022/10/27 00:31:07;;;;;;;13.13;6.38;;;;;;;12.57;100.00;101560.03;4965031;28;20064;-82
2022/10/27 00:33:34;;;;;;;9.65;5.93;;;;;;;12.48;100.00;101549.56;4952059;29;20099;-81
2022/10/27 00:36:05;;;;;;;10.93;6.45;;;;;;;12.51;100.00;101562.41;4952658;29;20527;-82
2022/10/27 00:38:32;;;;;;;13.55;6.75;;;;;;;12.54;100.00;101570.00;4950227;29;20051;-80
2022/10/27 00:41:00;;;;;;;15.02;7.15;;;;;;;12.59;100.00;101560.72;4962505;29;20055;-81
2022/10/27 00:43:30;;;;;;;13.27;7.45;;;;;;;12.62;100.00;101564.84;4970370;28;20075;-81
2022/10/27 00:46:01;;;;;;;11.45;7.68;;;;;;;12.61;100.00;101569.28;4977128;28;20071;-81
2022/10/27 00:48:32;;;;;;;18.73;7.72;;;;;;;12.62;100.00;101564.84;4991018;28;20085;-81
2022/10/27 00:51:02;;;;;;;14.68;7.85;;;;;;;12.62;100.00;101565.66;4994075;28;20074;-81
2022/10/27 00:53:29;;;;;;;16.25;8.15;;;;;;;12.63;100.00;101572.56;4991856;28;20078;-80
2022/10/27 00:55:56;;;;;;;13.25;7.85;;;;;;;12.56;100.00;101560.16;4971115;29;20441;-81
2022/10/27 00:58:23;;;;;;;16.35;8.18;;;;;;;12.53;100.00;101578.84;4969503;29;20126;-80
2022/10/27 01:00:49;;;;;;;12.85;7.05;;;;;;;12.52;100.00;101569.31;4973082;28;20103;-80
2022/10/27 01:03:20;;;;;;;16.92;7.35;;;;;;;12.49;100.00;101574.84;4988514;28;20093;-80
2022/10/27 01:05:49;;;;;;;11.63;7.20;;;;;;;12.48;100.00;101588.94;4988385;28;20063;-81
2022/10/27 01:08:16;;;;;;;10.02;7.97;;;;;;;12.40;100.00;101584.41;4986215;28;20133;-80
2022/10/27 01:10:43;;;;;;;15.80;8.00;;;;;;;12.34;100.00;101577.13;4988449;28;20050;-81
2022/10/27 01:13:10;;;;;;;12.75;7.60;;;;;;;12.30;100.00;101592.31;4981846;28;20055;-81
2022/10/27 01:15:46;;;;;;;16.73;7.80;;;;;;;12.26;100.00;101583.13;4987188;28;20110;-79
2022/10/27 01:18:21;;;;;;;13.10;8.05;;;;;;;12.27;100.00;101584.78;4986257;28;20050;-81
2022/10/27 01:21:31;;;;;;;16.98;6.90;;;;;;;12.24;100.00;101587.69;4987544;28;20133;-80
2022/10/27 01:24:22;;;;;;;11.68;7.22;;;;;;;12.17;100.00;101591.84;4952346;28;20146;-81
2022/10/27 01:26:51;;;;;;;11.68;7.15;;;;;;;12.16;100.00;101582.31;4968695;29;20082;-80
2022/10/27 01:29:39;;;;;;;13.45;7.80;;;;;;;12.17;100.00;101581.34;4968790;28;20115;-79
2022/10/27 01:32:22;;;;;;;16.77;7.30;;;;;;;12.18;100.00;101590.03;4985990;28;20141;-79
2022/10/27 01:34:53;;;;;;;13.57;6.90;;;;;;;12.16;100.00;101590.19;4982379;28;20087;-80
2022/10/27 01:37:38;;;;;;;11.38;7.50;;;;;;;12.12;100.00;101580.94;4968599;29;20075;-80
2022/10/27 01:40:15;;;;;;;15.35;7.07;;;;;;;12.14;100.00;101597.38;4965573;28;20118;-79
2022/10/27 01:42:48;;;;;;;14.82;7.60;;;;;;;12.08;100.00;101592.69;4966700;28;20083;-80
2022/10/27 01:45:17;;;;;;;14.27;7.63;;;;;;;12.04;100.00;101596.56;4969656;28;20089;-80
2022/10/27 01:47:46;;;;;;;15.18;7.30;;;;;;;11.94;100.00;101588.72;4964564;29;20075;-79
2022/10/27 01:50:17;;;;;;;13.02;7.68;;;;;;;12.06;100.00;101605.13;4965355;28;20096;-79
2022/10/27 01:52:46;;;;;;;15.50;7.82;;;;;;;12.04;100.00;101606.22;4966794;28;20134;-81
2022/10/27 01:55:18;;;;;;;16.20;7.93;;;;;;;11.94;100.00;101598.38;4985362;28;20062;-81
2022/10/27 01:58:15;;;;;;;13.98;7.57;;;;;;;11.90;100.00;101605.69;4985886;28;20127;-80
2022/10/27 02:00:54;;;;;;;14.88;7.15;;;;;;;11.87;100.00;101599.91;4973189;28;20055;-80
2022/10/27 02:03:28;;;;;;;15.90;7.43;;;;;;;11.93;100.00;101602.78;4967548;29;20114;-81
2022/10/27 02:06:07;;;;;;;12.65;7.53;;;;;;;11.86;100.00;101601.69;4967337;29;20134;-79
2022/10/27 02:08:42;;;;;;;14.48;7.38;;;;;;;11.86;100.00;101604.31;4966395;29;20051;-80
2022/10/27 02:11:10;;;;;;;10.10;6.88;;;;;;;11.81;100.00;101598.69;4974189;28;20071;-81
2022/10/27 02:13:39;;;;;;;9.75;6.70;;;;;;;11.86;100.00;101608.72;4990613;28;20071;-81
2022/10/27 02:16:09;;;;;;;11.75;6.88;;;;;;;11.79;100.00;101594.56;4987087;28;20039;-82
2022/10/27 02:18:41;;;;;;;13.60;7.20;;;;;;;11.80;100.00;101610.16;4968745;29;20062;-80
2022/10/27 02:21:11;;;;;;;10.80;6.73;;;;;;;11.81;100.00;101608.34;4966757;29;20133;-81
2022/10/27 02:23:39;;;;;;;13.27;7.18;;;;;;;11.87;100.00;101599.91;4978169;28;20097;-80
2022/10/27 02:26:18;;;;;;;9.75;6.85;;;;;;;11.84;100.00;101600.19;4985664;28;20173;-81
2022/10/27 02:28:49;;;;;;;10.43;6.60;;;;;;;11.85;100.00;101607.09;4984885;28;20135;-80
2022/10/27 02:31:18;;;;;;;11.82;7.97;;;;;;;11.80;100.00;101614.56;4982552;28;20596;-80
2022/10/27 02:33:47;;;;;;;15.57;7.32;;;;;;;11.84;100.00;101605.44;4968758;28;20139;-80
2022/10/27 02:36:14;;;;;;;13.57;7.20;;;;;;;11.74;100.00;101601.97;4963874;29;20091;-80
2022/10/27 02:38:40;;;;;;;11.00;7.13;;;;;;;11.76;100.00;101597.44;4963477;29;20459;-80
2022/10/27 02:41:07;;;;;;;11.65;7.18;;;;;;;11.72;100.00;101596.06;4965126;28;20110;-80
2022/10/27 02:43:33;;;;;;;15.30;7.18;;;;;;;11.69;100.00;101598.94;4979746;28;20057;-80
2022/10/27 02:46:00;;;;;;;15.27;7.43;;;;;;;11.67;100.00;101603.50;4971933;28;20051;-81
2022/10/27 02:48:26;;;;;;;11.57;6.63;;;;;;;11.68;100.00;101599.91;4963929;29;20126;-80
2022/10/27 02:50:54;;;;;;;13.18;6.70;;;;;;;11.62;100.00;101596.88;4963423;28;20058;-81
2022/10/27 02:53:21;;;;;;;11.65;7.32;;;;;;;11.58;100.00;101600.75;4974978;28;20110;-81
2022/10/27 02:55:48;;;;;;;13.45;7.25;;;;;;;11.57;100.00;101606.94;4983024;28;20089;-80
2022/10/27 02:58:14;;;;;;;14.70;7.30;;;;;;;11.58;100.00;101615.66;4982261;28;20106;-80
2022/10/27 03:00:41;;;;;;;14.63;6.93;;;;;;;11.53;100.00;101621.31;4978329;28;20103;-79
2022/10/27 03:03:07;;;;;;;17.27;7.90;;;;;;;11.51;100.00;101610.13;4964196;29;20137;-79
2022/10/27 03:05:34;;;;;;;12.18;7.32;;;;;;;11.52;100.00;101605.72;4963200;29;20139;-79
2022/10/27 03:08:02;;;;;;;11.65;7.18;;;;;;;11.52;100.00;101608.34;4962372;29;20074;-79
2022/10/27 03:10:29;;;;;;;14.40;7.53;;;;;;;11.47;100.00;101602.66;4963470;28;20079;-80
2022/10/27 03:12:55;;;;;;;14.20;7.40;;;;;;;11.47;100.00;101597.44;4968490;29;20070;-80
2022/10/27 03:15:22;;;;;;;15.23;7.30;;;;;;;11.48;100.00;101594.69;4972844;28;20053;-81
2022/10/27 03:18:02;;;;;;;16.17;7.53;;;;;;;11.40;100.00;101586.66;4985955;28;20050;-80
2022/10/27 03:20:29;;;;;;;15.43;7.28;;;;;;;11.26;100.00;101574.84;4982315;28;20055;-80
2022/10/27 03:22:55;;;;;;;17.13;7.85;;;;;;;11.28;100.00;101586.00;4975259;28;20048;-80
2022/10/27 03:25:23;;;;;;;19.42;9.15;;;;;;;11.30;100.00;101584.06;4961020;29;20069;-79
2022/10/27 03:27:50;;;;;;;13.35;6.97;;;;;;;11.30;100.00;101583.25;4959561;29;20130;-76
2022/10/27 03:30:17;;;;;;;12.05;6.93;;;;;;;11.27;100.00;101575.66;4960777;28;20093;-79
2022/10/27 03:32:45;;;;;;;12.77;7.60;;;;;;;11.25;100.00;101567.09;4979911;28;20110;-79
2022/10/27 03:35:12;;;;;;;13.25;7.20;;;;;;;11.19;100.00;101572.88;4980073;28;20050;-79
2022/10/27 03:37:38;;;;;;;12.48;7.30;;;;;;;11.16;100.00;101578.41;4979635;28;20054;-80
2022/10/27 03:40:06;;;;;;;16.13;7.90;;;;;;;11.15;100.00;101577.56;4965375;28;20074;-80
2022/10/27 03:42:34;;;;;;;13.95;7.75;;;;;;;11.15;100.00;101582.81;4960434;29;20057;-80
2022/10/27 03:45:01;;;;;;;12.57;7.50;;;;;;;11.06;100.00;101572.31;4959660;29;20082;-80
2022/10/27 03:47:27;;;;;;;19.65;7.82;;;;;;;11.13;100.00;101592.59;4960495;28;20051;-80
2022/10/27 03:49:54;;;;;;;11.45;7.68;;;;;;;11.12;100.00;101590.13;4958603;29;20059;-79
2022/10/27 03:52:21;;;;;;;13.38;7.35;;;;;;;11.09;100.00;101587.75;4958428;29;20138;-80
2022/10/27 03:54:48;;;;;;;14.63;8.15;;;;;;;11.11;100.00;101591.06;4958772;29;20047;-80
2022/10/27 03:57:15;;;;;;;14.18;7.30;;;;;;;11.03;100.00;101589.13;4974452;28;20051;-79
2022/10/27 03:59:43;;;;;;;17.33;7.50;;;;;;;11.01;100.00;101582.38;4977783;28;20106;-80
2022/10/27 04:02:09;;;;;;;11.13;7.57;;;;;;;11.00;100.00;101580.72;4961561;28;20143;-79
2022/10/27 04:04:36;;;;;;;13.18;7.43;;;;;;;10.95;100.00;101595.03;4959295;29;20047;-80
2022/10/27 04:07:02;;;;;;;17.02;7.22;;;;;;;11.05;100.00;101591.63;4958354;29;20051;-80
2022/10/27 04:09:29;;;;;;;11.27;6.93;;;;;;;11.06;100.00;101594.09;4974850;28;20110;-79
2022/10/27 04:11:56;;;;;;;14.55;7.10;;;;;;;11.04;100.00;101579.47;4978156;28;20070;-80
2022/10/27 04:14:22;;;;;;;15.70;8.60;;;;;;;11.00;100.00;101585.94;4977416;28;20134;-80
2022/10/27 04:16:50;;;;;;;13.32;7.80;;;;;;;10.98;100.00;101576.44;4965622;28;20085;-80
2022/10/27 04:19:17;;;;;;;12.05;7.30;;;;;;;10.93;100.00;101576.00;4965015;28;20075;-80
2022/10/27 04:21:44;;;;;;;18.10;7.22;;;;;;;11.00;100.00;101585.94;4966031;28;20115;-81
2022/10/27 04:24:11;;;;;;;13.10;7.20;;;;;;;10.97;100.00;101589.66;4968014;28;20134;-80
2022/10/27 04:26:38;;;;;;;14.38;7.10;;;;;;;10.94;100.00;101588.16;4989525;28;20078;-80
2022/10/27 04:29:04;;;;;;;13.75;7.47;;;;;;;10.90;100.00;101583.31;4989652;28;20097;-80
2022/10/27 04:31:31;;;;;;;16.67;7.90;;;;;;;10.96;100.00;101583.59;4976043;28;20201;-80
2022/10/27 04:33:59;;;;;;;12.10;7.57;;;;;;;10.95;100.00;101583.75;4966858;29;20051;-80
2022/10/27 04:36:26;;;;;;;13.20;7.40;;;;;;;10.93;100.00;101585.66;4981476;28;20082;-80
2022/10/27 04:38:52;;;;;;;13.57;7.65;;;;;;;10.92;100.00;101576.97;4985981;28;20107;-78
2022/10/27 04:41:19;;;;;;;13.00;7.78;;;;;;;10.92;100.00;101576.16;4984225;28;20525;-78
2022/10/27 04:43:48;;;;;;;11.75;7.53;;;;;;;10.91;100.00;101572.69;4985182;28;20062;-77
2022/10/27 04:46:15;;;;;;;14.82;7.40;;;;;;;10.91;100.00;101579.72;4981689;28;20118;-75
2022/10/27 04:48:42;;;;;;;11.23;7.10;;;;;;;10.92;100.00;101582.22;4994122;28;20078;-77
2022/10/27 04:51:10;;;;;;;13.77;7.20;;;;;;;10.89;100.00;101569.41;4993953;28;20059;-77
2022/10/27 04:53:36;;;;;;;11.45;7.30;;;;;;;10.90;100.00;101581.53;4989586;28;20057;-78
2022/10/27 04:56:03;;;;;;;14.25;7.80;;;;;;;10.83;100.00;101583.06;4973290;28;20133;-77
2022/10/27 04:58:29;;;;;;;10.82;7.55;;;;;;;10.80;100.00;101588.56;4972758;28;20059;-79
2022/10/27 05:00:56;;;;;;;11.43;6.97;;;;;;;10.82;100.00;101591.03;4968555;28;20050;-79
2022/10/27 05:03:23;;;;;;;15.13;7.00;;;;;;;10.87;100.00;101579.16;4953752;29;20078;-77
2022/10/27 05:05:49;;;;;;;13.30;7.38;;;;;;;10.87;100.00;101584.41;4953697;29;20059;-76
2022/10/27 05:08:17;;;;;;;12.02;6.80;;;;;;;10.82;100.00;101586.63;4962114;28;20481;-76
2022/10/27 05:10:45;;;;;;;11.73;6.72;;;;;;;10.83;100.00;101585.66;4973007;28;20137;-78
2022/10/27 05:13:11;;;;;;;12.10;6.93;;;;;;;10.81;100.00;101589.38;4972317;28;20057;-77
2022/10/27 05:15:38;;;;;;;17.10;7.25;;;;;;;10.76;100.00;101587.16;4972942;28;20057;-80
2022/10/27 05:18:05;;;;;;;8.63;7.30;;;;;;;10.79;100.00;101584.28;4978969;28;20057;-80
2022/10/27 05:20:31;;;;;;;19.00;7.90;;;;;;;10.83;100.00;101593.53;4979032;28;20548;-80
2022/10/27 05:22:58;;;;;;;13.23;6.70;;;;;;;10.75;100.00;101582.88;4977997;28;20054;-79
2022/10/27 05:25:26;;;;;;;11.68;6.72;;;;;;;10.73;100.00;101590.03;4974192;28;20134;-78
2022/10/27 05:27:52;;;;;;;16.88;7.55;;;;;;;10.67;100.00;101587.97;4955665;28;20097;-77
2022/10/27 05:30:19;;;;;;;15.73;7.00;;;;;;;10.72;100.00;101588.38;4957201;28;20138;-77
2022/10/27 05:32:46;;;;;;;13.20;6.88;;;;;;;10.67;100.00;101585.34;4956251;29;20047;-78
2022/10/27 05:35:12;;;;;;;13.18;6.78;;;;;;;10.66;100.00;101595.94;4957457;29;20078;-78
2022/10/27 05:37:43;;;;;;;12.10;7.07;;;;;;;10.62;100.00;101596.22;4959232;28;20125;-78
2022/10/27 05:41:09;;;;;;;13.25;7.00;;;;;;;10.62;100.00;101595.38;4988531;23;20043;-77
2022/10/27 05:50:41;;;;;;;12.57;7.55;;;;;;;10.57;100.00;101566.97;4977899;28;20058;-80
2022/10/27 05:53:47;;;;;;;10.10;6.47;;;;;;;10.67;100.00;101574.88;4983079;28;20465;-79
2022/10/27 05:56:14;;;;;;;12.18;6.78;;;;;;;10.86;100.00;101574.09;4978042;28;20051;-80
2022/10/27 05:58:43;;;;;;;22.90;7.22;;;;;;;10.95;100.00;101573.25;4974463;28;20051;-77
2022/10/27 06:01:14;;;;;;;16.75;7.25;;;;;;;11.07;100.00;101587.06;4972295;28;20050;-77
2022/10/27 06:03:41;;;;;;;14.77;6.70;;;;;;;11.24;100.00;101602.13;4954929;29;20059;-77
2022/10/27 06:06:08;;;;;;;10.77;6.55;;;;;;;11.20;100.00;101587.66;4955704;29;20082;-78
2022/10/27 06:08:35;;;;;;;12.68;6.80;;;;;;;11.28;100.00;101586.00;4962799;28;20153;-78
2022/10/27 06:11:02;;;;;;;17.30;6.35;;;;;;;11.21;100.00;101571.78;4975615;28;20053;-78
2022/10/27 06:13:51;;;;;;;13.00;6.75;;;;;;;11.32;100.00;101586.56;4978461;28;20086;-77
2022/10/27 06:16:25;;;;;;;25.73;7.45;;;;;;;11.35;100.00;101581.00;4978975;28;20101;-80
2022/10/27 06:18:55;;;;;;;11.02;6.30;;;;;;;11.24;100.00;101576.75;4979010;28;20089;-77
2022/10/27 06:21:31;;;;;;;14.15;6.28;;;;;;;11.29;100.00;101592.06;4968298;28;20051;-79
2022/10/27 06:24:16;;;;;;;18.92;7.57;;;;;;;11.20;100.00;101585.84;4979341;28;20589;-79
2022/10/27 06:26:43;;;;;;;16.83;6.18;;;;;;;11.35;100.00;101609.84;4967398;28;20417;-79
2022/10/27 06:29:10;;;;;;;19.27;6.65;;;;;;;11.28;100.00;101603.50;4931950;28;20043;-79
2022/10/27 06:31:41;;;;;;;16.77;7.85;;;;;;;11.18;100.00;101582.53;4950632;28;20059;-78
2022/10/27 06:34:21;;;;;;;12.82;6.60;;;;;;;11.34;100.00;101608.22;4950776;28;20054;-79
2022/10/27 06:36:55;;;;;;;10.85;5.63;;;;;;;11.37;100.00;101618.38;4938948;29;20053;-80
2022/10/27 06:39:23;;;;;;;12.40;5.90;;;;;;;11.38;100.00;101598.25;4949351;28;20125;-79
2022/10/27 06:42:02;;;;;;;11.13;6.50;;;;;;;11.36;100.00;101601.00;4946406;29;20082;-79
2022/10/27 06:44:30;;;;;;;12.10;5.85;;;;;;;11.53;100.00;101618.69;4945866;29;20058;-79
2022/10/27 06:47:00;;;;;;;15.75;6.30;;;;;;;11.63;100.00;101623.94;4947845;29;20055;-79
2022/10/27 06:55:31;;;;;;;;;;;;;;;;;;;;;
2022/10/27 06:57:58;;;;;;;9.15;5.43;;;;;;;12.09;100.00;101625.00;4928002;29;20126;-78
2022/10/27 07:00:28;;;;;;;16.55;6.05;;;;;;;12.11;100.00;101613.41;4935226;29;20107;-78
2022/10/27 07:02:56;;;;;;;11.10;5.68;;;;;;;12.11;100.00;101584.53;4939568;29;20060;-80
2022/10/27 07:05:22;;;;;;;11.23;5.60;;;;;;;12.43;100.00;101612.19;4939895;29;20102;-81
2022/10/27 07:07:51;;;;;;;13.75;5.63;;;;;;;12.52;100.00;101587.69;4940334;29;20114;-79
2022/10/27 07:10:18;;;;;;;9.73;5.43;;;;;;;12.62;100.00;101577.97;4941135;29;20090;-80
2022/10/27 07:12:53;;;;;;;8.27;5.18;;;;;;;12.79;100.00;101602.59;4942122;29;20087;-80
2022/10/27 07:15:20;;;;;;;11.70;4.95;;;;;;;12.70;100.00;101583.31;4940968;29;20051;-79
2022/10/27 07:17:46;;;;;;;15.55;5.22;;;;;;;12.80;100.00;101597.19;4942257;29;20485;-80
2022/10/27 07:20:14;;;;;;;11.07;5.20;;;;;;;12.92;100.00;101598.66;4942374;29;20099;-79
2022/10/27 07:22:41;;;;;;;10.80;4.60;;;;;;;13.19;100.00;101594.38;4943279;29;20086;-79
2022/10/27 07:25:08;;;;;;;11.20;5.15;;;;;;;13.33;100.00;101585.94;4938367;29;20125;-80
2022/10/27 07:27:35;;;;;;;8.23;5.07;;;;;;;13.46;100.00;101591.66;4941128;29;20139;-79
2022/10/27 07:30:02;;;;;;;11.52;5.28;;;;;;;13.61;100.00;101584.88;4936506;29;20055;-80
2022/10/27 07:32:29;;;;;;;9.20;4.38;;;;;;;13.76;100.00;101586.94;4937664;29;20131;-78
2022/10/27 07:34:55;;;;;;;16.80;5.00;;;;;;;13.93;100.00;101583.47;4936650;29;20060;-78
2022/10/27 07:37:23;;;;;;;6.75;4.88;;;;;;;14.04;100.00;101596.38;4937907;29;20562;-79
2022/10/27 07:39:50;;;;;;;8.25;4.45;;;;;;;14.24;100.00;101587.25;4938842;29;20091;-79
2022/10/27 07:42:17;;;;;;;11.52;4.95;;;;;;;14.34;100.00;101571.34;4939672;29;20119;-79
2022/10/27 07:44:45;;;;;;;14.73;4.82;;;;;;;14.37;99.83;101580.75;4940629;29;20123;-79
2022/10/27 07:47:12;;;;;;;8.90;4.25;;;;;;;14.36;99.45;101574.66;4939650;29;20134;-78
2022/10/27 07:49:38;;;;;;;13.20;4.57;;;;;;;14.50;98.81;101576.72;4937537;29;20134;-78
2022/10/27 07:52:05;;;;;;;11.65;4.80;;;;;;;14.58;98.44;101584.66;4937877;29;20146;-78
2022/10/27 07:54:34;;;;;;;10.98;4.40;;;;;;;14.76;97.47;101576.63;4937368;29;20062;-79
2022/10/27 07:57:00;;;;;;;8.13;4.28;;;;;;;15.06;96.57;101577.03;4938014;29;20059;-78
2022/10/27 07:59:27;;;;;;;8.25;4.25;;;;;;;14.93;96.99;101573.06;4937956;29;20051;-78
2022/10/27 08:01:53;;;;;;;9.55;4.45;;;;;;;15.04;96.23;101571.13;4938366;29;20065;-79
2022/10/27 08:04:20;;;;;;;13.18;4.18;;;;;;;14.97;96.13;101578.00;4939009;29;20144;-80
2022/10/27 08:06:47;;;;;;;8.88;4.15;;;;;;;15.17;95.40;101563.53;4938848;29;20136;-79
2022/10/27 08:09:13;;;;;;;7.00;3.95;;;;;;;15.57;94.41;101576.78;4937814;29;20090;-79
2022/10/27 08:11:41;;;;;;;15.75;4.82;;;;;;;15.44;93.72;101572.97;4940504;29;20582;-81
2022/10/27 08:14:10;;;;;;;9.35;4.13;;;;;;;15.43;93.33;101569.50;4940184;29;20066;-80
2022/10/27 08:16:37;;;;;;;11.30;4.38;;;;;;;15.35;93.67;101572.13;4939237;29;20095;-77
2022/10/27 08:19:04;;;;;;;7.43;4.30;;;;;;;15.26;94.22;101567.81;4937382;29;20134;-80
2022/10/27 08:21:34;;;;;;;11.35;4.15;;;;;;;15.47;93.72;101570.00;4940923;29;20055;-80
2022/10/27 08:24:01;;;;;;;10.90;4.00;;;;;;;15.52;93.81;101579.06;4938741;29;20055;-78
2022/10/27 08:26:27;;;;;;;8.52;4.22;;;;;;;15.25;94.25;101574.09;4934662;29;20482;-78
2022/10/27 08:28:55;;;;;;;15.10;4.10;;;;;;;15.23;95.04;101574.25;4933884;29;20166;-78
2022/10/27 08:31:23;;;;;;;10.10;4.22;;;;;;;15.10;95.28;101583.66;4936185;29;20054;-80
2022/10/27 08:33:50;;;;;;;10.38;4.60;;;;;;;15.12;96.06;101576.41;4937383;29;20067;-78
2022/10/27 08:36:17;;;;;;;7.30;4.05;;;;;;;15.13;96.23;101572.75;4937626;29;20079;-79
2022/10/27 08:38:44;;;;;;;9.13;4.10;;;;;;;15.09;96.32;101566.19;4936437;29;20431;-79
2022/10/27 08:41:20;;;;;;;10.40;4.18;;;;;;;15.18;96.34;101562.53;4938131;29;20051;-80
2022/10/27 08:44:11;;;;;;;12.52;3.88;;;;;;;15.26;95.76;101562.56;4936319;29;20499;-79
2022/10/27 08:46:43;;;;;;;6.28;4.10;;;;;;;15.25;95.00;101559.09;4936445;29;20090;-79
2022/10/27 08:49:27;;;;;;;7.53;3.92;;;;;;;15.36;94.72;101563.22;4936801;29;20241;-78
2022/10/27 08:51:57;;;;;;;8.30;3.85;;;;;;;15.45;94.70;101564.88;4941113;29;20056;-79
2022/10/27 08:54:25;;;;;;;17.25;3.85;;;;;;;15.57;94.57;101560.97;4940715;29;20471;-78
2022/10/27 08:56:54;;;;;;;6.80;3.80;;;;;;;15.62;94.06;101556.97;4941162;29;20489;-79
2022/10/27 08:59:24;;;;;;;8.82;3.80;;;;;;;15.71;93.31;101571.81;4941560;29;20051;-79
2022/10/27 09:02:00;;;;;;;11.38;4.15;;;;;;;15.78;93.00;101570.16;4943353;29;20130;-80
2022/10/27 09:04:43;;;;;;;7.50;3.80;;;;;;;15.88;92.39;101555.78;4942982;29;20056;-79
2022/10/27 09:07:18;;;;;;;4.85;3.30;;;;;;;15.97;92.08;101553.97;4942630;29;20140;-79
2022/10/27 09:09:52;;;;;;;8.52;4.55;;;;;;;15.98;91.45;101552.97;4940504;29;20525;-79
2022/10/27 09:12:38;;;;;;;6.78;3.58;;;;;;;16.02;91.46;101548.19;4941887;29;20131;-78
2022/10/27 09:15:38;;;;;;;12.38;4.20;;;;;;;16.16;91.45;101540.34;4941888;29;20055;-79
2022/10/27 09:18:11;;;;;;;6.60;3.53;;;;;;;16.25;91.48;101547.25;4941596;29;20087;-79
2022/10/27 09:20:43;;;;;;;6.72;3.20;;;;;;;16.24;91.17;101542.97;4941868;29;20154;-78
2022/10/27 09:23:15;;;;;;;5.87;3.47;;;;;;;16.26;91.21;101546.28;4942277;29;20066;-78
2022/10/27 09:25:43;;;;;;;;;;;;;;;16.23;91.40;101535.22;4943049;29;20115;-79
2022/10/27 09:28:17;;;;;;;6.78;3.53;;;;;;;16.31;91.55;101531.72;4941497;29;20021;-78
2022/10/27 09:30:47;;;;;;;6.47;3.45;;;;;;;16.38;91.52;101519.47;4942138;29;20150;-79
2022/10/27 09:33:19;;;;;;;8.98;3.90;;;;;;;16.50;90.85;101512.81;4941573;29;20086;-79
2022/10/27 09:35:46;;;;;;;5.95;3.75;;;;;;;16.57;91.08;101521.69;4942736;29;20063;-79
2022/10/27 09:38:22;;;;;;;11.05;3.58;;;;;;;16.69;89.88;101504.47;4941055;29;20055;-79
2022/10/27 09:43:25;;;;;;;6.10;3.60;;;;;;;16.75;89.25;101487.91;4920967;29;20040;-78
2022/10/27 09:46:29;;;;;;;;;;;;;;;;;;;;;
2022/10/27 09:49:24;;;;;;;6.18;3.63;;;;;;;16.92;88.36;101510.59;4920667;29;20498;-79
2022/10/27 09:52:08;;;;;;;6.10;3.53;;;;;;;16.81;87.39;101476.66;4921675;29;20056;-79
2022/10/27 09:54:38;;;;;;;6.78;3.58;;;;;;;17.08;87.92;101498.25;4945593;23;20143;-79
2022/10/27 09:57:07;;;;;;;6.75;3.83;;;;;;;17.12;87.57;101494.25;4956929;29;20050;-80
2022/10/27 09:59:35;;;;;;;7.22;3.55;;;;;;;17.36;87.69;101483.47;4964375;28;20570;-78
2022/10/27 10:02:04;;;;;;;8.57;3.70;;;;;;;17.38;87.58;101484.13;4964843;28;20146;-80
2022/10/27 10:04:34;;;;;;;7.22;3.70;;;;;;;17.49;87.37;101481.00;4965730;28;20106;-79
2022/10/27 10:07:03;;;;;;;8.00;3.90;;;;;;;17.52;86.84;101482.47;4965349;29;20471;-80
2022/10/27 10:09:31;;;;;;;9.55;3.50;;;;;;;17.61;86.71;101489.31;4964581;28;20102;-79
2022/10/27 10:12:28;;;;;;;7.00;3.78;;;;;;;17.73;86.30;101482.63;4965395;28;20051;-78
2022/10/27 10:15:16;;;;;;;8.48;3.63;;;;;;;17.90;86.05;101483.28;4924214;29;20135;-79
2022/10/27 10:17:53;;;;;;;8.50;3.65;;;;;;;17.92;86.04;101475.97;4960826;29;20047;-80
2022/10/27 10:20:30;;;;;;;7.38;3.83;;;;;;;18.00;85.70;101465.25;4964791;29;20134;-77
2022/10/27 10:22:58;;;;;;;5.45;4.00;;;;;;;17.95;85.63;101472.94;4964214;28;20130;-79
2022/10/27 10:25:28;;;;;;;6.07;3.50;;;;;;;17.92;85.79;101468.03;4964164;28;20082;-79
2022/10/27 10:27:58;;;;;;;13.27;3.92;;;;;;;17.97;85.51;101473.56;4962956;28;20142;-80
2022/10/27 10:30:25;;;;;;;8.02;3.70;;;;;;;18.03;85.24;101467.53;4964074;29;20112;-79
2022/10/27 10:32:55;;;;;;;7.57;3.90;;;;;;;18.11;85.64;101462.13;4964282;29;20133;-79
2022/10/27 10:35:43;;;;;;;7.97;3.95;;;;;;;18.21;85.72;101460.03;4964018;28;20074;-78
2022/10/27 10:38:33;;;;;;;7.00;3.55;;;;;;;18.23;85.53;101459.84;4963066;29;20074;-79
2022/10/27 10:41:02;;;;;;;10.65;3.80;;;;;;;18.44;85.36;101461.69;4964076;29;20155;-79
2022/10/27 10:43:29;;;;;;;5.78;3.65;;;;;;;18.46;84.76;101454.38;4963835;28;20124;-79
2022/10/27 10:45:57;;;;;;;10.32;4.10;;;;;;;18.63;84.63;101457.66;4963647;28;20049;-79
2022/10/27 10:48:31;;;;;;;14.05;3.50;;;;;;;18.68;84.46;101453.41;4963486;29;20094;-78
2022/10/27 10:50:59;;;;;;;5.95;3.67;;;;;;;18.99;84.42;101439.00;4963060;29;20047;-78
2022/10/27 10:53:29;;;;;;;9.85;3.85;;;;;;;19.16;82.98;101427.09;4963866;29;20114;-79
2022/10/27 10:56:00;;;;;;;10.63;3.70;;;;;;;19.21;82.23;101430.81;4964526;29;20115;-80
2022/10/27 10:58:29;;;;;;;8.73;3.80;;;;;;;19.24;81.76;101432.28;4963979;29;20055;-80
2022/10/27 11:00:59;;;;;;;6.80;3.80;;;;;;;19.32;82.12;101426.81;4963868;28;20134;-79
2022/10/27 11:03:30;;;;;;;10.63;3.85;;;;;;;19.31;81.22;101425.19;4963306;29;20051;-79
2022/10/27 11:06:00;;;;;;;10.82;4.28;;;;;;;19.46;81.57;101433.84;4965106;29;20134;-80
2022/10/27 11:08:33;;;;;;;6.70;3.67;;;;;;;19.40;81.16;101439.91;4963976;29;20054;-80
2022/10/27 11:11:03;;;;;;;7.70;3.53;;;;;;;19.30;81.59;101428.84;4964476;28;20047;-77
2022/10/27 11:13:38;;;;;;;8.93;3.60;;;;;;;19.22;81.59;101426.34;4963799;28;20118;-80
2022/10/27 11:16:07;;;;;;;6.47;3.83;;;;;;;19.28;81.78;101417.59;4964480;29;20479;-79
2022/10/27 11:18:44;;;;;;;5.93;3.63;;;;;;;19.29;81.42;101427.22;4963561;29;20083;-80
2022/10/27 11:21:18;;;;;;;7.78;3.58;;;;;;;19.37;81.61;101421.75;4964865;29;20089;-79
2022/10/27 11:23:48;;;;;;;6.70;3.63;;;;;;;19.45;81.58;101413.59;4964307;28;20146;-79
2022/10/27 11:26:19;;;;;;;8.52;4.35;;;;;;;19.68;81.07;101423.19;4965673;28;20085;-79
2022/10/27 11:28:56;;;;;;;8.27;4.35;;;;;;;19.68;80.66;101410.72;4965372;29;20111;-80
2022/10/27 11:31:34;;;;;;;12.18;3.70;;;;;;;19.70;80.69;101406.03;4965212;29;20070;-79
2022/10/27 11:34:10;;;;;;;8.20;3.55;;;;;;;19.85;80.38;101405.88;4965270;28;20399;-79
2022/10/27 11:36:42;;;;;;;10.18;4.55;;;;;;;19.77;80.43;101398.09;4966075;28;20063;-80
2022/10/27 11:39:10;;;;;;;7.25;3.60;;;;;;;19.75;80.03;101395.63;4964471;28;20145;-80
2022/10/27 11:41:43;;;;;;;8.07;3.83;;;;;;;19.87;79.92;101394.03;4965426;29;20087;-80
2022/10/27 11:44:19;;;;;;;8.18;3.95;;;;;;;19.96;79.32;101394.69;4965043;28;20082;-80
2022/10/27 11:46:52;;;;;;;10.23;3.92;;;;;;;20.02;79.60;101371.81;4964552;28;20055;-80
2022/10/27 11:49:30;;;;;;;7.38;4.03;;;;;;;20.13;78.96;101369.41;4963821;28;20082;-81